Tetien Trader — SYDU — position and weather

sailwx.info

Track history (hours):
 
Tides and Currents Weather Stations Pressure Air Temp Water Temp Dewpoint Dewpoint Depression Visibility Wind Speed Wind Dir Waves Ship Positions

Tetien Trader

Last reported at 2014-Dec-29 04:11 UTC. Time now 2015-Aug-31 10:54 UTC.
Position N 22°15' E 114°05'.
Warning: this ship's position is months out of date.

Length 225 m; draft 9.5 m.

Type: Cargo ship. MMSI: 239875000.

Date/timePositionNaut miles runAvg speedWind from/ knotsBaromVisibWave heightAir tempDewpointWater temp
2014-Dec-29 04:11N 22°15' E 114°05'0 0.0
2014-Dec-28 16:23N 22°15' E 114°06'0 0.0
2014-Dec-27 22:29N 22°15' E 114°06'0 0.0
2014-Dec-27 21:11N 22°15' E 114°06'0 0.0
2014-Dec-27 07:14N 22°15' E 114°05'0 0.0
2014-Dec-27 02:26N 22°15' E 114°05'0 0.0
2014-Dec-26 20:17N 22°15' E 114°06'0 0.0
2014-Dec-26 19:29N 22°15' E 114°06'0 0.1
2014-Dec-26 18:08N 22°15' E 114°05'0 0.0
2014-Dec-26 13:17N 22°15' E 114°05'0 0.1
2014-Dec-26 11:05N 22°15' E 114°05'0 0.0
2014-Dec-26 02:05N 22°15' E 114°05'0 0.0
2014-Dec-26 01:26N 22°15' E 114°05'0 0.0
2014-Dec-26 00:32N 22°15' E 114°05'0 0.0
2014-Dec-25 22:20N 22°15' E 114°05'0 0.1
2014-Dec-25 21:11N 22°15' E 114°06'0 0.0
2014-Dec-25 20:29N 22°15' E 114°06'0 0.0
2014-Dec-25 09:08N 22°15' E 114°05'0 0.0
2014-Dec-25 04:23N 22°15' E 114°06'0 0.0
2014-Dec-24 23:29N 22°15' E 114°05'0 0.1
2014-Dec-24 22:29N 22°15' E 114°05'0 0.0
2014-Dec-24 19:29N 22°15' E 114°06'0 0.0
2014-Dec-24 17:23N 22°15' E 114°06'0 0.0
2014-Dec-24 02:17N 22°15' E 114°05'0 0.0
2014-Dec-23 23:20N 22°15' E 114°05'0 0.0
2014-Dec-23 20:32N 22°15' E 114°06'0 0.0
2014-Dec-23 17:29N 22°15' E 114°06'0 0.0
2014-Dec-23 13:08N 22°15' E 114°05'0 0.0
2014-Dec-23 02:08N 22°15' E 114°05'0 0.0
2014-Dec-23 00:23N 22°15' E 114°05'8 4.4
2014-Dec-22 22:29N 22°10' E 114°13'5 5.1
2014-Dec-22 21:31N 22°08' E 114°08'1210.5
2014-Dec-22 20:25N 22°06' E 113°55'8 8.8
2014-Dec-22 19:33N 22°09' E 113°48'1414.2
2014-Dec-22 18:33N 22°23' E 113°47'1514.8
2014-Dec-22 17:32N 22°37' E 113°42'1411.4
2014-Dec-22 16:17N 22°50' E 113°35'7 9.5
2014-Dec-22 15:33N 22°57' E 113°33'7 6.0
2014-Dec-22 14:24N 23°03' E 113°30'0 0.0
2014-Dec-22 13:26N 23°03' E 113°30'0 0.0
2014-Dec-22 12:30N 23°03' E 113°30'0 0.0
2014-Dec-22 11:30N 23°03' E 113°30'0 0.0
2014-Dec-22 10:30N 23°03' E 113°30'0 0.0
2014-Dec-22 09:30N 23°03' E 113°30'0 0.1
2014-Dec-22 08:30N 23°03' E 113°30'0 0.1
2014-Dec-22 07:30N 23°03' E 113°30'0 0.0
2014-Dec-22 06:24N 23°03' E 113°30'0 0.0
2014-Dec-22 05:30N 23°03' E 113°30'0 0.0
2014-Dec-22 04:30N 23°03' E 113°30'0 0.0
2014-Dec-22 03:30N 23°03' E 113°30'0 0.0
2014-Dec-22 02:30N 23°03' E 113°30'0 0.0
2014-Dec-22 01:30N 23°03' E 113°30'0 0.1
2014-Dec-22 00:30N 23°03' E 113°30'0 0.0
2014-Dec-21 23:30N 23°03' E 113°30'0 0.1
2014-Dec-21 22:30N 23°03' E 113°30'0 0.0
2014-Dec-21 21:30N 23°03' E 113°30'0 0.0
2014-Dec-21 20:30N 23°03' E 113°30'0 0.1
2014-Dec-21 19:24N 23°03' E 113°30'0 0.1
2014-Dec-21 18:24N 23°03' E 113°30'0 0.1
2014-Dec-21 17:30N 23°03' E 113°30'0 0.0
2014-Dec-21 16:24N 23°03' E 113°30'0 0.1
2014-Dec-21 15:30N 23°03' E 113°30'0 0.1
2014-Dec-21 14:24N 23°03' E 113°30'0 0.0
2014-Dec-21 13:30N 23°03' E 113°30'0 0.0
2014-Dec-21 12:31N 23°03' E 113°30'0 0.1
2014-Dec-21 11:31N 23°03' E 113°30'1 1.2
2014-Dec-21 10:33N 23°02' E 113°31'8 8.4
2014-Dec-21 09:33N 22°54' E 113°34'4 3.5
2014-Dec-21 08:30N 22°51' E 113°34'1 0.8
2014-Dec-21 07:33N 22°50' E 113°35'6 6.0
2014-Dec-21 06:33N 22°45' E 113°39'3 2.4
2014-Dec-21 05:12N 22°43' E 113°41'0 0.0
2014-Dec-21 03:06N 22°43' E 113°41'0 0.1
2014-Dec-20 23:30N 22°42' E 113°41'0 0.0
2014-Dec-20 22:12N 22°42' E 113°41'0 0.0
2014-Dec-20 21:30N 22°42' E 113°41'0 0.0
2014-Dec-20 20:24N 22°42' E 113°41'0 0.0
2014-Dec-20 19:24N 22°42' E 113°41'0 0.0
2014-Dec-20 18:24N 22°42' E 113°41'0 0.0
2014-Dec-20 16:06N 22°43' E 113°41'0 0.2
2014-Dec-20 14:30N 22°43' E 113°41'0 0.0
2014-Dec-20 11:18N 22°43' E 113°41'0 0.2
2014-Dec-20 09:24N 22°43' E 113°41'0 0.1
2014-Dec-20 08:30N 22°42' E 113°41'0 0.0
2014-Dec-20 07:30N 22°42' E 113°41'0 0.0
2014-Dec-20 06:18N 22°42' E 113°41'0 0.1
2014-Dec-20 05:12N 22°42' E 113°41'0 0.2
2014-Dec-20 04:30N 22°42' E 113°41'0 0.2
2014-Dec-20 03:30N 22°43' E 113°41'0 0.0
2014-Dec-20 00:24N 22°43' E 113°41'0 0.2
2014-Dec-19 23:30N 22°42' E 113°41'0 0.1
2014-Dec-19 22:24N 22°42' E 113°41'0 0.0
2014-Dec-19 21:24N 22°42' E 113°41'0 0.0
2014-Dec-19 20:24N 22°42' E 113°41'0 0.0
2014-Dec-19 19:30N 22°42' E 113°41'0 0.0
2014-Dec-19 18:30N 22°42' E 113°41'0 0.0
2014-Dec-19 17:06N 22°42' E 113°41'0 0.1
2014-Dec-19 16:24N 22°43' E 113°41'0 0.1
2014-Dec-19 15:30N 22°43' E 113°41'0 0.1
2014-Dec-19 11:12N 22°43' E 113°41'0 0.2
2014-Dec-19 10:06N 22°43' E 113°41'0 0.2
2014-Dec-19 09:12N 22°43' E 113°41'0 0.0
2014-Dec-19 08:30N 22°43' E 113°41'0 0.0
2014-Dec-19 07:18N 22°43' E 113°41'0 0.0
2014-Dec-19 06:30N 22°43' E 113°41'0 0.0
2014-Dec-19 05:30N 22°43' E 113°41'0 0.0
2014-Dec-19 04:12N 22°43' E 113°41'  
Track history (hours):
 
Tides and Currents Weather Stations Pressure Air Temp Water Temp Dewpoint Dewpoint Depression Visibility Wind Speed Wind Dir Waves Ship Positions

Tetien Trader

Last reported at 2014-Dec-29 04:11 UTC. Time now 2015-Aug-31 10:54 UTC.
Position N 22°15' E 114°05'.
Warning: this ship's position is months out of date.

Length 225 m; draft 9.5 m.

Type: Cargo ship. MMSI: 239875000.

Date/timePositionNaut miles runAvg speedWind from/ knotsBaromVisibWave heightAir tempDewpointWater temp
2014-Dec-29 04:11N 22°15' E 114°05'0 0.0
2014-Dec-28 16:23N 22°15' E 114°06'0 0.0
2014-Dec-27 22:29N 22°15' E 114°06'0 0.0
2014-Dec-27 21:11N 22°15' E 114°06'0 0.0
2014-Dec-27 07:14N 22°15' E 114°05'0 0.0
2014-Dec-27 02:26N 22°15' E 114°05'0 0.0
2014-Dec-26 20:17N 22°15' E 114°06'0 0.0
2014-Dec-26 19:29N 22°15' E 114°06'0 0.1
2014-Dec-26 18:08N 22°15' E 114°05'0 0.0
2014-Dec-26 13:17N 22°15' E 114°05'0 0.1
2014-Dec-26 11:05N 22°15' E 114°05'0 0.0
2014-Dec-26 02:05N 22°15' E 114°05'0 0.0
2014-Dec-26 01:26N 22°15' E 114°05'0 0.0
2014-Dec-26 00:32N 22°15' E 114°05'0 0.0
2014-Dec-25 22:20N 22°15' E 114°05'0 0.1
2014-Dec-25 21:11N 22°15' E 114°06'0 0.0
2014-Dec-25 20:29N 22°15' E 114°06'0 0.0
2014-Dec-25 09:08N 22°15' E 114°05'0 0.0
2014-Dec-25 04:23N 22°15' E 114°06'0 0.0
2014-Dec-24 23:29N 22°15' E 114°05'0 0.1
2014-Dec-24 22:29N 22°15' E 114°05'0 0.0
2014-Dec-24 19:29N 22°15' E 114°06'0 0.0
2014-Dec-24 17:23N 22°15' E 114°06'0 0.0
2014-Dec-24 02:17N 22°15' E 114°05'0 0.0
2014-Dec-23 23:20N 22°15' E 114°05'0 0.0
2014-Dec-23 20:32N 22°15' E 114°06'0 0.0
2014-Dec-23 17:29N 22°15' E 114°06'0 0.0
2014-Dec-23 13:08N 22°15' E 114°05'0 0.0
2014-Dec-23 02:08N 22°15' E 114°05'0 0.0
2014-Dec-23 00:23N 22°15' E 114°05'8 4.4
2014-Dec-22 22:29N 22°10' E 114°13'5 5.1
2014-Dec-22 21:31N 22°08' E 114°08'1210.5
2014-Dec-22 20:25N 22°06' E 113°55'8 8.8
2014-Dec-22 19:33N 22°09' E 113°48'1414.2
2014-Dec-22 18:33N 22°23' E 113°47'1514.8
2014-Dec-22 17:32N 22°37' E 113°42'1411.4
2014-Dec-22 16:17N 22°50' E 113°35'7 9.5
2014-Dec-22 15:33N 22°57' E 113°33'7 6.0
2014-Dec-22 14:24N 23°03' E 113°30'0 0.0
2014-Dec-22 13:26N 23°03' E 113°30'0 0.0
2014-Dec-22 12:30N 23°03' E 113°30'0 0.0
2014-Dec-22 11:30N 23°03' E 113°30'0 0.0
2014-Dec-22 10:30N 23°03' E 113°30'0 0.0
2014-Dec-22 09:30N 23°03' E 113°30'0 0.1
2014-Dec-22 08:30N 23°03' E 113°30'0 0.1
2014-Dec-22 07:30N 23°03' E 113°30'0 0.0
2014-Dec-22 06:24N 23°03' E 113°30'0 0.0
2014-Dec-22 05:30N 23°03' E 113°30'0 0.0
2014-Dec-22 04:30N 23°03' E 113°30'0 0.0
2014-Dec-22 03:30N 23°03' E 113°30'0 0.0
2014-Dec-22 02:30N 23°03' E 113°30'0 0.0
2014-Dec-22 01:30N 23°03' E 113°30'0 0.1
2014-Dec-22 00:30N 23°03' E 113°30'0 0.0
2014-Dec-21 23:30N 23°03' E 113°30'0 0.1
2014-Dec-21 22:30N 23°03' E 113°30'0 0.0
2014-Dec-21 21:30N 23°03' E 113°30'0 0.0
2014-Dec-21 20:30N 23°03' E 113°30'0 0.1
2014-Dec-21 19:24N 23°03' E 113°30'0 0.1
2014-Dec-21 18:24N 23°03' E 113°30'0 0.1
2014-Dec-21 17:30N 23°03' E 113°30'0 0.0
2014-Dec-21 16:24N 23°03' E 113°30'0 0.1
2014-Dec-21 15:30N 23°03' E 113°30'0 0.1
2014-Dec-21 14:24N 23°03' E 113°30'0 0.0
2014-Dec-21 13:30N 23°03' E 113°30'0 0.0
2014-Dec-21 12:31N 23°03' E 113°30'0 0.1
2014-Dec-21 11:31N 23°03' E 113°30'1 1.2
2014-Dec-21 10:33N 23°02' E 113°31'8 8.4
2014-Dec-21 09:33N 22°54' E 113°34'4 3.5
2014-Dec-21 08:30N 22°51' E 113°34'1 0.8
2014-Dec-21 07:33N 22°50' E 113°35'6 6.0
2014-Dec-21 06:33N 22°45' E 113°39'3 2.4
2014-Dec-21 05:12N 22°43' E 113°41'0 0.0
2014-Dec-21 03:06N 22°43' E 113°41'0 0.1
2014-Dec-20 23:30N 22°42' E 113°41'0 0.0
2014-Dec-20 22:12N 22°42' E 113°41'0 0.0
2014-Dec-20 21:30N 22°42' E 113°41'0 0.0
2014-Dec-20 20:24N 22°42' E 113°41'0 0.0
2014-Dec-20 19:24N 22°42' E 113°41'0 0.0
2014-Dec-20 18:24N 22°42' E 113°41'0 0.0
2014-Dec-20 16:06N 22°43' E 113°41'0 0.2
2014-Dec-20 14:30N 22°43' E 113°41'0 0.0
2014-Dec-20 11:18N 22°43' E 113°41'0 0.2
2014-Dec-20 09:24N 22°43' E 113°41'0 0.1
2014-Dec-20 08:30N 22°42' E 113°41'0 0.0
2014-Dec-20 07:30N 22°42' E 113°41'0 0.0
2014-Dec-20 06:18N 22°42' E 113°41'0 0.1
2014-Dec-20 05:12N 22°42' E 113°41'0 0.2
2014-Dec-20 04:30N 22°42' E 113°41'0 0.2
2014-Dec-20 03:30N 22°43' E 113°41'0 0.0
2014-Dec-20 00:24N 22°43' E 113°41'0 0.2
2014-Dec-19 23:30N 22°42' E 113°41'0 0.1
2014-Dec-19 22:24N 22°42' E 113°41'0 0.0
2014-Dec-19 21:24N 22°42' E 113°41'0 0.0
2014-Dec-19 20:24N 22°42' E 113°41'0 0.0
2014-Dec-19 19:30N 22°42' E 113°41'0 0.0
2014-Dec-19 18:30N 22°42' E 113°41'0 0.0
2014-Dec-19 17:06N 22°42' E 113°41'0 0.1
2014-Dec-19 16:24N 22°43' E 113°41'0 0.1
2014-Dec-19 15:30N 22°43' E 113°41'0 0.1
2014-Dec-19 11:12N 22°43' E 113°41'0 0.2
2014-Dec-19 10:06N 22°43' E 113°41'0 0.2
2014-Dec-19 09:12N 22°43' E 113°41'0 0.0
2014-Dec-19 08:30N 22°43' E 113°41'0 0.0
2014-Dec-19 07:18N 22°43' E 113°41'0 0.0
2014-Dec-19 06:30N 22°43' E 113°41'0 0.0
2014-Dec-19 05:30N 22°43' E 113°41'0 0.0
2014-Dec-19 04:12N 22°43' E 113°41'  

Dump ship's entire track history